sensor_id;sensor_type;location;lat;lon;timestamp;P1;durP1;ratioP1;P2;durP2;ratioP2
17636;SDS011;8937;51.236;6.794;2022-12-07T00:04:56;4.93;;;4.43;;
17636;SDS011;8937;51.236;6.794;2022-12-07T00:13:17;4.63;;;3.80;;
17636;SDS011;8937;51.236;6.794;2022-12-07T00:21:40;5.07;;;4.57;;
17636;SDS011;8937;51.236;6.794;2022-12-07T00:30:02;5.87;;;4.63;;
17636;SDS011;8937;51.236;6.794;2022-12-07T00:38:26;7.20;;;5.17;;
17636;SDS011;8937;51.236;6.794;2022-12-07T00:46:48;7.30;;;4.63;;
17636;SDS011;8937;51.236;6.794;2022-12-07T00:55:11;5.70;;;4.57;;
17636;SDS011;8937;51.236;6.794;2022-12-07T01:03:32;7.43;;;4.50;;
17636;SDS011;8937;51.236;6.794;2022-12-07T01:11:55;4.73;;;4.23;;
17636;SDS011;8937;51.236;6.794;2022-12-07T01:20:16;5.73;;;4.47;;
17636;SDS011;8937;51.236;6.794;2022-12-07T01:28:39;4.67;;;4.27;;
17636;SDS011;8937;51.236;6.794;2022-12-07T01:37:00;5.57;;;4.57;;
17636;SDS011;8937;51.236;6.794;2022-12-07T01:45:36;5.43;;;4.53;;
17636;SDS011;8937;51.236;6.794;2022-12-07T01:53:58;5.03;;;4.53;;
17636;SDS011;8937;51.236;6.794;2022-12-07T02:02:22;5.83;;;5.07;;
17636;SDS011;8937;51.236;6.794;2022-12-07T02:10:44;6.87;;;5.50;;
17636;SDS011;8937;51.236;6.794;2022-12-07T02:19:13;5.50;;;4.40;;
17636;SDS011;8937;51.236;6.794;2022-12-07T02:27:41;5.73;;;4.97;;
17636;SDS011;8937;51.236;6.794;2022-12-07T02:36:08;6.53;;;4.77;;
17636;SDS011;8937;51.236;6.794;2022-12-07T02:44:31;5.07;;;4.60;;
17636;SDS011;8937;51.236;6.794;2022-12-07T02:52:55;6.30;;;5.07;;
17636;SDS011;8937;51.236;6.794;2022-12-07T03:01:19;7.53;;;5.10;;
17636;SDS011;8937;51.236;6.794;2022-12-07T03:09:47;7.03;;;4.67;;
17636;SDS011;8937;51.236;6.794;2022-12-07T03:18:10;6.13;;;5.03;;
17636;SDS011;8937;51.236;6.794;2022-12-07T03:26:35;5.47;;;4.47;;
17636;SDS011;8937;51.236;6.794;2022-12-07T03:34:58;6.23;;;5.47;;
17636;SDS011;8937;51.236;6.794;2022-12-07T03:43:23;6.93;;;4.97;;
17636;SDS011;8937;51.236;6.794;2022-12-07T03:51:46;5.27;;;4.60;;
17636;SDS011;8937;51.236;6.794;2022-12-07T04:00:11;4.77;;;4.30;;
17636;SDS011;8937;51.236;6.794;2022-12-07T04:08:33;4.70;;;4.30;;
17636;SDS011;8937;51.236;6.794;2022-12-07T04:16:56;4.97;;;4.47;;
17636;SDS011;8937;51.236;6.794;2022-12-07T04:25:18;5.87;;;4.17;;
17636;SDS011;8937;51.236;6.794;2022-12-07T04:33:41;5.00;;;4.50;;
17636;SDS011;8937;51.236;6.794;2022-12-07T04:42:02;5.63;;;4.37;;
17636;SDS011;8937;51.236;6.794;2022-12-07T04:50:25;5.70;;;4.37;;
17636;SDS011;8937;51.236;6.794;2022-12-07T04:58:47;4.13;;;3.73;;
17636;SDS011;8937;51.236;6.794;2022-12-07T05:07:09;4.67;;;4.27;;
17636;SDS011;8937;51.236;6.794;2022-12-07T05:15:31;3.87;;;3.57;;
17636;SDS011;8937;51.236;6.794;2022-12-07T05:23:53;3.93;;;3.43;;
17636;SDS011;8937;51.236;6.794;2022-12-07T05:32:15;4.23;;;3.83;;
17636;SDS011;8937;51.236;6.794;2022-12-07T05:40:38;3.50;;;3.20;;
17636;SDS011;8937;51.236;6.794;2022-12-07T05:48:59;3.80;;;3.50;;
17636;SDS011;8937;51.236;6.794;2022-12-07T05:57:22;3.97;;;3.57;;
17636;SDS011;8937;51.236;6.794;2022-12-07T06:05:43;3.63;;;3.17;;
17636;SDS011;8937;51.236;6.794;2022-12-07T06:14:06;3.40;;;3.10;;
17636;SDS011;8937;51.236;6.794;2022-12-07T06:22:27;5.60;;;3.00;;
17636;SDS011;8937;51.236;6.794;2022-12-07T06:30:57;3.47;;;2.87;;
17636;SDS011;8937;51.236;6.794;2022-12-07T06:39:20;3.00;;;2.77;;
17636;SDS011;8937;51.236;6.794;2022-12-07T06:47:43;3.17;;;2.73;;
17636;SDS011;8937;51.236;6.794;2022-12-07T06:56:05;5.67;;;3.17;;
17636;SDS011;8937;51.236;6.794;2022-12-07T07:04:29;2.83;;;2.60;;
17636;SDS011;8937;51.236;6.794;2022-12-07T07:12:50;3.40;;;3.10;;
17636;SDS011;8937;51.236;6.794;2022-12-07T07:21:13;3.17;;;2.97;;
17636;SDS011;8937;51.236;6.794;2022-12-07T07:29:34;3.23;;;2.93;;
17636;SDS011;8937;51.236;6.794;2022-12-07T07:37:57;3.13;;;2.77;;
17636;SDS011;8937;51.236;6.794;2022-12-07T07:46:19;3.27;;;2.97;;
17636;SDS011;8937;51.236;6.794;2022-12-07T07:54:42;3.07;;;2.87;;
17636;SDS011;8937;51.236;6.794;2022-12-07T08:03:03;3.90;;;3.53;;
17636;SDS011;8937;51.236;6.794;2022-12-07T08:11:26;5.40;;;3.70;;
17636;SDS011;8937;51.236;6.794;2022-12-07T08:19:47;3.37;;;3.07;;
17636;SDS011;8937;51.236;6.794;2022-12-07T08:28:11;3.53;;;2.83;;
17636;SDS011;8937;51.236;6.794;2022-12-07T08:36:32;2.50;;;2.30;;
17636;SDS011;8937;51.236;6.794;2022-12-07T08:44:55;2.77;;;2.57;;
17636;SDS011;8937;51.236;6.794;2022-12-07T08:53:16;2.60;;;2.40;;
17636;SDS011;8937;51.236;6.794;2022-12-07T09:01:39;3.13;;;2.43;;
17636;SDS011;8937;51.236;6.794;2022-12-07T09:10:01;5.43;;;2.80;;
17636;SDS011;8937;51.236;6.794;2022-12-07T09:18:24;2.60;;;2.40;;
17636;SDS011;8937;51.236;6.794;2022-12-07T09:26:45;5.10;;;2.47;;
17636;SDS011;8937;51.236;6.794;2022-12-07T09:35:13;2.43;;;2.23;;
17636;SDS011;8937;51.236;6.794;2022-12-07T09:43:35;2.67;;;2.47;;
17636;SDS011;8937;51.236;6.794;2022-12-07T09:52:03;2.97;;;2.70;;
17636;SDS011;8937;51.236;6.794;2022-12-07T10:00:25;3.13;;;2.87;;
17636;SDS011;8937;51.236;6.794;2022-12-07T10:08:49;3.57;;;2.80;;
17636;SDS011;8937;51.236;6.794;2022-12-07T10:17:34;2.80;;;2.17;;
17636;SDS011;8937;51.236;6.794;2022-12-07T10:25:57;4.47;;;2.80;;
17636;SDS011;8937;51.236;6.794;2022-12-07T10:34:20;3.23;;;2.63;;
17636;SDS011;8937;51.236;6.794;2022-12-07T10:42:43;5.17;;;2.70;;
17636;SDS011;8937;51.236;6.794;2022-12-07T10:51:21;3.60;;;2.47;;
17636;SDS011;8937;51.236;6.794;2022-12-07T10:59:54;2.70;;;2.40;;
17636;SDS011;8937;51.236;6.794;2022-12-07T11:08:18;5.47;;;2.77;;
17636;SDS011;8937;51.236;6.794;2022-12-07T11:16:48;4.90;;;2.40;;
17636;SDS011;8937;51.236;6.794;2022-12-07T11:25:16;4.77;;;2.37;;
17636;SDS011;8937;51.236;6.794;2022-12-07T11:33:41;2.03;;;1.83;;
17636;SDS011;8937;51.236;6.794;2022-12-07T11:42:06;5.53;;;2.73;;
17636;SDS011;8937;51.236;6.794;2022-12-07T11:50:34;2.93;;;2.30;;
17636;SDS011;8937;51.236;6.794;2022-12-07T11:58:57;4.73;;;2.93;;
17636;SDS011;8937;51.236;6.794;2022-12-07T12:07:23;5.87;;;2.57;;
17636;SDS011;8937;51.236;6.794;2022-12-07T12:24:35;5.80;;;2.83;;
17636;SDS011;8937;51.236;6.794;2022-12-07T12:33:01;6.77;;;2.97;;
17636;SDS011;8937;51.236;6.794;2022-12-07T12:50:28;4.93;;;3.37;;
17636;SDS011;8937;51.236;6.794;2022-12-07T12:58:49;4.37;;;2.90;;
17636;SDS011;8937;51.236;6.794;2022-12-07T13:07:52;4.07;;;2.83;;
17636;SDS011;8937;51.236;6.794;2022-12-07T13:25:11;3.10;;;2.73;;
17636;SDS011;8937;51.236;6.794;2022-12-07T13:33:33;3.03;;;2.07;;
17636;SDS011;8937;51.236;6.794;2022-12-07T13:41:57;2.57;;;1.80;;
17636;SDS011;8937;51.236;6.794;2022-12-07T13:50:24;4.63;;;1.57;;
17636;SDS011;8937;51.236;6.794;2022-12-07T13:58:47;1.67;;;1.57;;
17636;SDS011;8937;51.236;6.794;2022-12-07T14:15:51;2.67;;;1.23;;
17636;SDS011;8937;51.236;6.794;2022-12-07T14:24:16;1.93;;;1.40;;
17636;SDS011;8937;51.236;6.794;2022-12-07T14:32:39;2.13;;;1.67;;
17636;SDS011;8937;51.236;6.794;2022-12-07T14:41:01;2.30;;;1.67;;
17636;SDS011;8937;51.236;6.794;2022-12-07T14:49:37;1.90;;;1.80;;
17636;SDS011;8937;51.236;6.794;2022-12-07T14:57:59;1.70;;;1.60;;
17636;SDS011;8937;51.236;6.794;2022-12-07T15:06:22;2.70;;;1.63;;
17636;SDS011;8937;51.236;6.794;2022-12-07T15:14:43;2.03;;;1.60;;
17636;SDS011;8937;51.236;6.794;2022-12-07T15:23:06;3.80;;;1.87;;
17636;SDS011;8937;51.236;6.794;2022-12-07T15:31:27;2.90;;;1.80;;
17636;SDS011;8937;51.236;6.794;2022-12-07T15:39:50;1.57;;;1.47;;
17636;SDS011;8937;51.236;6.794;2022-12-07T15:48:11;1.87;;;1.70;;
17636;SDS011;8937;51.236;6.794;2022-12-07T15:56:34;2.83;;;1.63;;
17636;SDS011;8937;51.236;6.794;2022-12-07T16:04:55;3.27;;;1.90;;
17636;SDS011;8937;51.236;6.794;2022-12-07T16:13:18;2.50;;;1.60;;
17636;SDS011;8937;51.236;6.794;2022-12-07T16:21:41;9.87;;;2.37;;
17636;SDS011;8937;51.236;6.794;2022-12-07T16:30:05;4.57;;;2.10;;
17636;SDS011;8937;51.236;6.794;2022-12-07T16:38:27;2.27;;;2.13;;
17636;SDS011;8937;51.236;6.794;2022-12-07T16:46:49;3.40;;;2.27;;
17636;SDS011;8937;51.236;6.794;2022-12-07T16:55:11;2.23;;;2.03;;
17636;SDS011;8937;51.236;6.794;2022-12-07T17:03:33;2.33;;;2.07;;
17636;SDS011;8937;51.236;6.794;2022-12-07T17:11:55;4.97;;;2.27;;
17636;SDS011;8937;51.236;6.794;2022-12-07T17:20:17;2.63;;;2.40;;
17636;SDS011;8937;51.236;6.794;2022-12-07T17:28:39;3.70;;;2.77;;
17636;SDS011;8937;51.236;6.794;2022-12-07T17:37:02;3.37;;;2.90;;
17636;SDS011;8937;51.236;6.794;2022-12-07T17:45:23;3.47;;;2.90;;
17636;SDS011;8937;51.236;6.794;2022-12-07T17:53:48;3.03;;;2.60;;
17636;SDS011;8937;51.236;6.794;2022-12-07T18:02:10;3.13;;;2.57;;
17636;SDS011;8937;51.236;6.794;2022-12-07T18:10:33;5.17;;;2.80;;
17636;SDS011;8937;51.236;6.794;2022-12-07T18:18:57;4.23;;;2.60;;
17636;SDS011;8937;51.236;6.794;2022-12-07T18:27:20;5.00;;;3.70;;
17636;SDS011;8937;51.236;6.794;2022-12-07T18:35:42;4.50;;;4.07;;
17636;SDS011;8937;51.236;6.794;2022-12-07T18:44:05;5.63;;;4.80;;
17636;SDS011;8937;51.236;6.794;2022-12-07T18:52:26;6.97;;;3.97;;
17636;SDS011;8937;51.236;6.794;2022-12-07T19:00:49;5.33;;;4.80;;
17636;SDS011;8937;51.236;6.794;2022-12-07T19:09:11;6.13;;;4.80;;
17636;SDS011;8937;51.236;6.794;2022-12-07T19:17:34;5.50;;;4.20;;
17636;SDS011;8937;51.236;6.794;2022-12-07T19:25:56;5.93;;;4.40;;
17636;SDS011;8937;51.236;6.794;2022-12-07T19:34:18;7.63;;;4.90;;
17636;SDS011;8937;51.236;6.794;2022-12-07T19:42:40;6.57;;;4.70;;
17636;SDS011;8937;51.236;6.794;2022-12-07T19:51:03;6.13;;;4.83;;
17636;SDS011;8937;51.236;6.794;2022-12-07T19:59:26;5.03;;;4.33;;
17636;SDS011;8937;51.236;6.794;2022-12-07T20:07:49;7.47;;;5.80;;
17636;SDS011;8937;51.236;6.794;2022-12-07T20:16:10;6.60;;;4.73;;
17636;SDS011;8937;51.236;6.794;2022-12-07T20:24:33;8.23;;;5.33;;
17636;SDS011;8937;51.236;6.794;2022-12-07T20:32:55;6.40;;;5.40;;
17636;SDS011;8937;51.236;6.794;2022-12-07T20:41:18;8.77;;;5.30;;
17636;SDS011;8937;51.236;6.794;2022-12-07T20:49:57;6.13;;;4.93;;
17636;SDS011;8937;51.236;6.794;2022-12-07T20:58:20;5.97;;;4.77;;
17636;SDS011;8937;51.236;6.794;2022-12-07T21:06:41;5.47;;;4.67;;
17636;SDS011;8937;51.236;6.794;2022-12-07T21:15:05;12.97;;;5.03;;
17636;SDS011;8937;51.236;6.794;2022-12-07T21:23:26;5.00;;;3.97;;
17636;SDS011;8937;51.236;6.794;2022-12-07T21:31:49;6.47;;;5.10;;
17636;SDS011;8937;51.236;6.794;2022-12-07T21:40:11;7.53;;;5.60;;
17636;SDS011;8937;51.236;6.794;2022-12-07T21:48:34;5.77;;;4.80;;
17636;SDS011;8937;51.236;6.794;2022-12-07T21:56:55;6.53;;;5.07;;
17636;SDS011;8937;51.236;6.794;2022-12-07T22:05:19;9.00;;;4.97;;
17636;SDS011;8937;51.236;6.794;2022-12-07T22:13:41;5.27;;;4.67;;
17636;SDS011;8937;51.236;6.794;2022-12-07T22:22:21;6.23;;;4.70;;
17636;SDS011;8937;51.236;6.794;2022-12-07T22:30:43;6.63;;;4.83;;
17636;SDS011;8937;51.236;6.794;2022-12-07T22:39:05;5.27;;;4.63;;
17636;SDS011;8937;51.236;6.794;2022-12-07T22:47:27;5.90;;;4.70;;
17636;SDS011;8937;51.236;6.794;2022-12-07T22:55:50;11.10;;;5.13;;
17636;SDS011;8937;51.236;6.794;2022-12-07T23:04:11;7.80;;;5.30;;
17636;SDS011;8937;51.236;6.794;2022-12-07T23:12:34;5.73;;;4.93;;
17636;SDS011;8937;51.236;6.794;2022-12-07T23:21:13;5.00;;;4.53;;
17636;SDS011;8937;51.236;6.794;2022-12-07T23:29:36;5.40;;;4.87;;
17636;SDS011;8937;51.236;6.794;2022-12-07T23:37:57;6.90;;;5.30;;
17636;SDS011;8937;51.236;6.794;2022-12-07T23:46:21;8.37;;;5.60;;
17636;SDS011;8937;51.236;6.794;2022-12-07T23:54:43;7.10;;;4.90;;
